createdAt,value
2019-02-21T00:01:43.699Z,36.50
2019-02-21T00:04:12.212Z,38.30
2019-02-21T00:06:40.824Z,36.25
2019-02-21T00:09:09.697Z,36.35
2019-02-21T00:11:38.319Z,38.42
2019-02-21T00:14:06.838Z,39.92
2019-02-21T00:16:35.374Z,42.50
2019-02-21T00:19:03.984Z,37.60
2019-02-21T00:21:32.579Z,34.98
2019-02-21T00:24:01.194Z,43.30
2019-02-21T00:26:29.722Z,41.13
2019-02-21T00:28:58.380Z,35.15
2019-02-21T00:31:26.911Z,45.95
2019-02-21T00:33:55.455Z,36.93
2019-02-21T00:36:24.049Z,36.93
2019-02-21T00:38:52.605Z,38.00
2019-02-21T00:41:21.142Z,40.17
2019-02-21T00:43:50.138Z,41.65
2019-02-21T00:46:19.064Z,39.65
2019-02-21T00:48:47.557Z,38.28
2019-02-21T00:51:16.103Z,42.15
2019-02-21T00:53:44.553Z,40.45
2019-02-21T00:56:13.099Z,46.13
2019-02-21T00:58:41.632Z,38.33
2019-02-21T01:01:10.314Z,35.30
2019-02-21T01:03:38.840Z,38.00
2019-02-21T01:06:07.371Z,35.20
2019-02-21T01:08:35.915Z,41.02
2019-02-21T01:11:05.450Z,33.10
2019-02-21T01:13:33.995Z,32.15
2019-02-21T01:16:02.691Z,35.05
2019-02-21T01:18:31.242Z,32.78
2019-02-21T01:20:59.766Z,34.70
2019-02-21T01:23:28.325Z,35.48
2019-02-21T01:25:56.919Z,35.65
2019-02-21T01:28:25.490Z,34.08
2019-02-21T01:30:56.999Z,36.15
2019-02-21T01:33:24.171Z,35.88
2019-02-21T01:35:52.732Z,42.15
2019-02-21T01:38:21.250Z,31.30
2019-02-21T01:40:49.795Z,36.33
2019-02-21T01:43:18.398Z,32.05
2019-02-21T01:45:46.937Z,31.23
2019-02-21T01:48:15.469Z,39.05
2019-02-21T01:50:44.012Z,40.63
2019-02-21T01:53:12.530Z,34.18
2019-02-21T01:55:41.011Z,34.63
2019-02-21T01:58:09.531Z,37.00
2019-02-21T02:00:38.132Z,40.60
2019-02-21T02:03:06.678Z,33.53
2019-02-21T02:05:35.208Z,38.45
2019-02-21T02:08:03.820Z,36.08
2019-02-21T02:10:32.426Z,32.13
2019-02-21T02:13:01.262Z,38.85
2019-02-21T02:15:29.715Z,31.80
2019-02-21T02:17:58.263Z,40.28
2019-02-21T02:20:26.791Z,34.67
2019-02-21T02:22:55.342Z,40.63
2019-02-21T02:25:23.874Z,39.90
2019-02-21T02:27:52.399Z,32.13
2019-02-21T02:30:21.015Z,35.58
2019-02-21T02:32:49.535Z,38.67
2019-02-21T02:35:18.029Z,35.30
2019-02-21T02:37:46.581Z,33.98
2019-02-21T02:40:15.131Z,38.02
2019-02-21T02:42:43.657Z,42.75
2019-02-21T02:45:12.327Z,43.17
2019-02-21T02:47:40.784Z,36.00
2019-02-21T02:50:09.463Z,39.33
2019-02-21T02:52:38.006Z,40.10
2019-02-21T02:55:06.882Z,36.25
2019-02-21T02:57:35.411Z,37.00
2019-02-21T03:00:06.246Z,33.38
2019-02-21T03:02:34.718Z,32.13
2019-02-21T03:05:03.247Z,42.08
2019-02-21T03:07:31.810Z,33.42
2019-02-21T03:10:00.547Z,34.18
2019-02-21T03:12:29.180Z,34.08
2019-02-21T03:14:57.706Z,33.40
2019-02-21T03:17:26.251Z,38.53
2019-02-21T03:19:54.777Z,36.33
2019-02-21T03:22:23.315Z,35.98
2019-02-21T03:24:51.768Z,28.77
2019-02-21T03:27:20.290Z,41.15
2019-02-21T03:29:48.835Z,37.25
2019-02-21T03:32:17.364Z,35.88
2019-02-21T03:34:45.934Z,41.15
2019-02-21T03:37:14.441Z,42.70
2019-02-21T03:39:42.967Z,37.40
2019-02-21T03:42:11.515Z,36.50
2019-02-21T03:44:40.044Z,34.00
2019-02-21T03:47:27.927Z,33.42
2019-02-21T03:49:56.455Z,36.03
2019-02-21T03:52:25.003Z,35.83
2019-02-21T03:54:53.527Z,40.08
2019-02-21T03:57:22.153Z,30.95
2019-02-21T03:59:50.747Z,37.70
2019-02-21T04:02:19.267Z,29.98
2019-02-21T04:04:47.888Z,33.10
2019-02-21T04:07:16.411Z,38.95
2019-02-21T04:09:44.955Z,31.68
2019-02-21T04:12:13.485Z,34.90
2019-02-21T04:14:42.363Z,35.00
2019-02-21T04:17:10.904Z,27.37
2019-02-21T04:19:39.582Z,36.35
2019-02-21T04:22:08.041Z,28.35
2019-02-21T04:24:36.602Z,33.15
2019-02-21T04:27:05.199Z,29.85
2019-02-21T04:29:34.011Z,44.58
2019-02-21T04:32:02.647Z,32.80
2019-02-21T04:34:31.173Z,37.88
2019-02-21T04:36:59.711Z,35.85
2019-02-21T04:39:28.171Z,31.55
2019-02-21T04:41:56.647Z,34.08
2019-02-21T04:44:25.247Z,34.43
2019-02-21T04:46:53.708Z,36.25
2019-02-21T04:49:22.328Z,27.48
2019-02-21T04:51:50.880Z,29.30
2019-02-21T04:54:19.411Z,29.77
2019-02-21T04:56:47.938Z,32.05
2019-02-21T04:59:16.486Z,34.18
2019-02-21T05:01:45.020Z,31.07
2019-02-21T05:04:13.573Z,32.98
2019-02-21T05:06:42.104Z,33.38
2019-02-21T05:09:10.654Z,29.63
2019-02-21T05:11:39.195Z,27.98
2019-02-21T05:14:07.811Z,28.73
2019-02-21T05:16:36.339Z,34.08
2019-02-21T05:19:04.887Z,25.77
2019-02-21T05:21:33.415Z,33.25
2019-02-21T05:24:02.032Z,35.33
2019-02-21T05:26:32.351Z,27.95
2019-02-21T05:29:02.658Z,28.20
2019-02-21T05:31:51.150Z,29.70
2019-02-21T05:34:21.318Z,27.13
2019-02-21T05:37:06.730Z,26.82
2019-02-21T05:39:42.666Z,26.50
2019-02-21T05:42:15.581Z,29.57
2019-02-21T05:44:51.803Z,23.52
2019-02-21T05:47:33.833Z,30.65
2019-02-21T05:50:03.963Z,31.20
2019-02-21T05:52:34.155Z,37.33
2019-02-21T05:55:19.042Z,28.75
2019-02-21T05:57:51.888Z,32.58
2019-02-21T06:00:22.064Z,31.95
2019-02-21T06:02:54.979Z,27.60
2019-02-21T06:05:27.817Z,25.50
2019-02-21T06:07:58.002Z,29.05
2019-02-21T06:10:40.207Z,25.45
2019-02-21T06:13:10.381Z,25.92
2019-02-21T06:15:57.277Z,27.70
2019-02-21T06:18:29.056Z,29.75
2019-02-21T06:21:11.399Z,26.55
2019-02-21T06:23:49.119Z,25.15
2019-02-21T06:26:18.902Z,24.87
2019-02-21T06:28:49.143Z,28.70
2019-02-21T06:31:17.759Z,29.48
2019-02-21T06:33:46.292Z,26.33
2019-02-21T06:36:14.995Z,29.25
2019-02-21T06:38:45.526Z,32.60
2019-02-21T06:41:14.108Z,29.18
2019-02-21T06:43:42.675Z,27.48
2019-02-21T06:46:13.586Z,28.45
2019-02-21T06:48:41.407Z,31.35
2019-02-21T06:51:09.903Z,26.70
2019-02-21T06:53:38.457Z,24.15
2019-02-21T06:56:07.059Z,32.15
2019-02-21T06:58:35.623Z,34.35
2019-02-21T07:01:04.347Z,43.55
2019-02-21T07:03:32.903Z,31.15
2019-02-21T07:06:01.435Z,25.85
2019-02-21T07:08:29.987Z,33.30
2019-02-21T07:11:05.708Z,27.90
2019-02-21T07:13:28.698Z,22.77
2019-02-21T07:15:58.590Z,25.05
2019-02-21T07:18:28.869Z,27.27
2019-02-21T07:20:57.454Z,23.50
2019-02-21T07:23:26.854Z,24.60
2019-02-21T07:25:56.776Z,35.05
2019-02-21T07:28:27.714Z,38.15
2019-02-21T07:30:55.575Z,37.93
2019-02-21T07:33:28.538Z,31.62
2019-02-21T07:35:54.341Z,28.57
2019-02-21T07:38:22.964Z,32.00
2019-02-21T07:40:51.519Z,32.75
2019-02-21T07:43:20.721Z,28.20
2019-02-21T07:45:49.544Z,22.67
2019-02-21T07:48:18.091Z,26.27
2019-02-21T07:50:46.621Z,31.50
2019-02-21T07:53:15.173Z,32.17
2019-02-21T07:55:43.694Z,28.83
2019-02-21T07:58:12.323Z,33.25
2019-02-21T08:00:40.856Z,29.25
2019-02-21T08:03:09.498Z,39.75
2019-02-21T08:05:38.017Z,31.50
2019-02-21T08:08:09.195Z,30.30
2019-02-21T08:10:37.027Z,33.42
2019-02-21T08:13:05.647Z,27.50
2019-02-21T08:15:34.348Z,28.07
2019-02-21T08:18:02.904Z,27.17
2019-02-21T08:20:34.724Z,31.57
2019-02-21T08:23:03.013Z,27.93
2019-02-21T08:25:31.814Z,19.53
2019-02-21T08:28:00.347Z,21.93
2019-02-21T08:30:29.304Z,25.00
2019-02-21T08:32:59.886Z,17.50
2019-02-21T08:35:29.454Z,18.93
2019-02-21T08:37:57.931Z,13.90
2019-02-21T08:40:26.543Z,19.97
2019-02-21T08:42:55.018Z,17.60
2019-02-21T08:45:23.475Z,21.77
2019-02-21T08:47:52.030Z,17.57
2019-02-21T08:50:22.291Z,19.97
2019-02-21T08:52:50.851Z,15.40
2019-02-21T08:55:19.516Z,18.00
2019-02-21T08:57:48.055Z,14.53
2019-02-21T09:00:17.247Z,18.83
2019-02-21T09:02:45.772Z,15.07
2019-02-21T09:05:15.197Z,20.13
2019-02-21T09:07:46.228Z,21.13
2019-02-21T09:10:14.103Z,21.30
2019-02-21T09:12:47.566Z,14.80
2019-02-21T09:15:15.471Z,13.53
2019-02-21T09:17:44.077Z,20.03
2019-02-21T09:20:12.765Z,22.53
2019-02-21T09:22:41.427Z,12.87
2019-02-21T09:25:12.119Z,16.80
2019-02-21T09:27:40.707Z,17.40
2019-02-21T09:30:14.770Z,13.30
2019-02-21T09:32:43.399Z,17.03
2019-02-21T09:35:12.543Z,14.43
2019-02-21T09:37:41.272Z,15.10
2019-02-21T09:40:14.487Z,13.03
2019-02-21T09:42:43.042Z,10.90
2019-02-21T09:45:16.631Z,18.17
2019-02-21T09:47:45.109Z,11.97
2019-02-21T09:50:14.070Z,22.73
2019-02-21T09:52:42.614Z,18.60
2019-02-21T09:55:18.489Z,12.43
2019-02-21T09:57:47.103Z,22.53
2019-02-21T10:00:17.578Z,16.13
2019-02-21T10:02:46.251Z,18.60
2019-02-21T10:05:14.794Z,34.13
2019-02-21T10:07:43.389Z,13.23
2019-02-21T10:10:16.998Z,13.87
2019-02-21T10:12:45.450Z,16.10
2019-02-21T10:15:15.727Z,20.10
2019-02-21T10:17:44.344Z,28.37
2019-02-21T10:20:18.906Z,17.43
2019-02-21T10:22:47.699Z,14.13
2019-02-21T10:25:19.135Z,15.93
2019-02-21T10:27:47.687Z,25.60
2019-02-21T10:30:21.016Z,19.93
2019-02-21T10:32:49.546Z,35.33
2019-02-21T10:35:18.166Z,26.67
2019-02-21T10:37:46.691Z,22.40
2019-02-21T10:40:16.180Z,30.73
2019-02-21T10:42:44.779Z,24.67
2019-02-21T10:45:18.829Z,22.30
2019-02-21T10:47:47.355Z,26.90
2019-02-21T10:50:20.024Z,32.70
2019-02-21T10:52:48.846Z,27.73
2019-02-21T10:55:18.298Z,26.40
2019-02-21T10:57:47.186Z,20.83
2019-02-21T11:00:25.869Z,18.00
2019-02-21T11:02:54.579Z,19.40
2019-02-21T11:05:23.123Z,23.13
2019-02-21T11:07:51.730Z,18.60
2019-02-21T11:10:23.275Z,21.30
2019-02-21T11:12:51.820Z,17.33
2019-02-21T11:15:22.788Z,15.53
2019-02-21T11:17:51.507Z,19.70
2019-02-21T11:20:21.184Z,17.13
2019-02-21T11:22:49.866Z,19.63
2019-02-21T11:25:18.384Z,22.13
2019-02-21T11:27:46.903Z,18.70
2019-02-21T11:30:36.320Z,18.67
2019-02-21T11:33:04.918Z,24.77
2019-02-21T11:35:33.387Z,16.20
2019-02-21T11:38:01.989Z,16.27
2019-02-21T11:40:30.530Z,22.80
2019-02-21T11:42:58.983Z,29.87
2019-02-21T11:45:27.600Z,17.10
2019-02-21T11:47:56.150Z,15.33
2019-02-21T11:50:24.695Z,19.87
2019-02-21T11:52:53.223Z,18.20
2019-02-21T11:55:23.688Z,15.33
2019-02-21T11:57:52.239Z,25.83
2019-02-21T12:00:28.124Z,14.97
2019-02-21T12:02:56.838Z,13.70
2019-02-21T12:05:31.311Z,13.27
2019-02-21T12:07:55.742Z,14.03
2019-02-21T12:10:24.271Z,20.43
2019-02-21T12:12:52.884Z,14.30
2019-02-21T12:15:21.555Z,15.80
2019-02-21T12:17:50.098Z,16.83
2019-02-21T12:20:19.479Z,28.67
2019-02-21T12:22:48.338Z,15.30
2019-02-21T12:25:18.929Z,16.47
2019-02-21T12:27:47.540Z,14.50
2019-02-21T12:30:18.191Z,13.83
2019-02-21T12:32:46.974Z,16.83
2019-02-21T12:35:15.591Z,15.50
2019-02-21T12:37:44.109Z,14.73
2019-02-21T12:40:21.155Z,17.37
2019-02-21T12:42:49.691Z,13.23
2019-02-21T12:45:20.565Z,18.53
2019-02-21T12:47:53.365Z,24.73
2019-02-21T12:50:19.308Z,20.60
2019-02-21T12:52:47.858Z,20.83
2019-02-21T12:55:27.251Z,16.37
2019-02-21T12:57:46.594Z,16.53
2019-02-21T13:00:17.464Z,19.73
2019-02-21T13:02:46.092Z,21.63
2019-02-21T13:05:14.607Z,17.80
2019-02-21T13:07:43.152Z,17.07
2019-02-21T13:10:19.191Z,14.83
2019-02-21T13:12:47.807Z,13.33
2019-02-21T13:15:16.477Z,20.37
2019-02-21T13:17:45.158Z,15.40
2019-02-21T13:20:15.235Z,20.37
2019-02-21T13:22:43.851Z,19.33
2019-02-21T13:25:14.418Z,22.20
2019-02-21T13:27:43.085Z,17.37
2019-02-21T13:30:14.238Z,14.57
2019-02-21T13:32:42.906Z,26.53
2019-02-21T13:35:12.003Z,17.10
2019-02-21T13:37:40.594Z,21.73
2019-02-21T13:40:14.460Z,11.40
2019-02-21T13:42:43.056Z,11.03
2019-02-21T13:45:13.731Z,17.17
2019-02-21T13:47:42.269Z,17.23
2019-02-21T13:50:13.163Z,24.10
2019-02-21T13:52:41.767Z,11.60
2019-02-21T13:55:10.432Z,16.37
2019-02-21T13:57:39.116Z,20.17
2019-02-21T14:00:11.256Z,12.10
2019-02-21T14:02:39.807Z,6.77
2019-02-21T14:05:08.462Z,11.17
2019-02-21T14:07:37.425Z,11.47
2019-02-21T14:10:08.750Z,24.27
2019-02-21T14:12:37.271Z,9.50
2019-02-21T14:15:17.533Z,10.27
2019-02-21T14:17:46.760Z,17.33
2019-02-21T14:20:15.477Z,9.77
2019-02-21T14:22:44.036Z,9.90
2019-02-21T14:25:12.639Z,12.30
2019-02-21T14:27:41.171Z,12.60
2019-02-21T14:30:15.503Z,14.00
2019-02-21T14:32:44.095Z,15.23
2019-02-21T14:35:13.948Z,11.03
2019-02-21T14:37:42.538Z,16.83
2019-02-21T14:40:16.000Z,7.33
2019-02-21T14:42:44.612Z,13.30
2019-02-21T14:45:22.145Z,8.43
2019-02-21T14:47:50.680Z,10.27
2019-02-21T14:50:19.205Z,13.67
2019-02-21T14:52:47.800Z,8.57
2019-02-21T14:55:17.467Z,11.93
2019-02-21T14:57:46.163Z,8.33
2019-02-21T15:00:28.980Z,17.53
2019-02-21T15:02:57.954Z,12.97
2019-02-21T15:05:26.786Z,9.00
2019-02-21T15:07:55.325Z,17.03
2019-02-21T15:10:23.870Z,9.47
2019-02-21T15:12:52.484Z,19.63
2019-02-21T15:15:27.487Z,16.33
2019-02-21T15:18:06.665Z,9.73
2019-02-21T15:20:36.428Z,16.73
2019-02-21T15:22:56.459Z,11.20
2019-02-21T15:25:24.998Z,10.37
2019-02-21T15:27:53.457Z,12.70
2019-02-21T15:30:23.748Z,7.03
2019-02-21T15:32:52.340Z,11.90
2019-02-21T15:35:20.908Z,14.50
2019-02-21T15:37:49.432Z,13.70
2019-02-21T15:40:18.096Z,17.73
2019-02-21T15:42:46.589Z,11.63
2019-02-21T15:45:24.260Z,22.60
2019-02-21T15:47:53.298Z,22.33
2019-02-21T15:50:21.875Z,31.17
2019-02-21T15:52:51.790Z,18.63
2019-02-21T15:55:21.403Z,28.10
2019-02-21T15:57:50.019Z,32.53
2019-02-21T16:00:20.966Z,12.53
2019-02-21T16:02:49.517Z,8.30
2019-02-21T16:05:18.123Z,17.00
2019-02-21T16:07:46.683Z,12.03
2019-02-21T16:10:20.703Z,9.93
2019-02-21T16:12:49.643Z,15.43
2019-02-21T16:15:18.823Z,14.10
2019-02-21T16:17:47.378Z,15.30
2019-02-21T16:20:17.449Z,17.67
2019-02-21T16:22:46.175Z,16.37
2019-02-21T16:25:20.217Z,14.67
2019-02-21T16:27:48.838Z,16.97
2019-02-21T16:30:17.527Z,15.93
2019-02-21T16:32:46.080Z,14.23
2019-02-21T16:35:15.060Z,13.33
2019-02-21T16:37:43.676Z,11.57
2019-02-21T16:40:14.819Z,13.93
2019-02-21T16:42:43.363Z,9.67
2019-02-21T16:45:16.683Z,15.43
2019-02-21T16:47:45.321Z,8.33
2019-02-21T16:50:14.799Z,11.77
2019-02-21T16:52:43.706Z,11.10
2019-02-21T16:55:19.836Z,11.10
2019-02-21T16:57:48.388Z,20.43
2019-02-21T17:00:20.933Z,17.00
2019-02-21T17:02:49.538Z,18.00
2019-02-21T17:05:18.143Z,37.53
2019-02-21T17:07:46.688Z,35.97
2019-02-21T17:10:16.279Z,35.03
2019-02-21T17:12:44.983Z,23.20
2019-02-21T17:15:15.631Z,26.90
2019-02-21T17:17:44.230Z,23.43
2019-02-21T17:20:15.485Z,29.70
2019-02-21T17:22:44.022Z,29.13
2019-02-21T17:25:15.010Z,31.13
2019-02-21T17:27:44.686Z,26.70
2019-02-21T17:30:15.566Z,16.23
2019-02-21T17:32:44.026Z,20.07
2019-02-21T17:35:12.696Z,14.70
2019-02-21T17:37:41.243Z,13.80
2019-02-21T17:40:15.628Z,20.97
2019-02-21T17:42:44.310Z,21.00
2019-02-21T17:45:13.271Z,19.20
2019-02-21T17:47:41.815Z,34.77
2019-02-21T17:50:13.451Z,19.97
2019-02-21T17:52:42.065Z,13.43
2019-02-21T17:55:11.435Z,13.97
2019-02-21T17:57:40.104Z,24.53
2019-02-21T18:00:21.739Z,19.80
2019-02-21T18:02:50.334Z,17.20
2019-02-21T18:05:18.872Z,19.03
2019-02-21T18:07:47.468Z,23.13
2019-02-21T18:10:17.213Z,22.90
2019-02-21T18:12:45.697Z,18.10
2019-02-21T18:15:15.474Z,18.30
2019-02-21T18:17:44.149Z,20.20
2019-02-21T18:20:13.960Z,20.10
2019-02-21T18:22:42.554Z,20.07
2019-02-21T18:25:22.944Z,16.93
2019-02-21T18:27:51.539Z,24.83
2019-02-21T18:30:20.150Z,17.70
2019-02-21T18:32:48.675Z,20.83
2019-02-21T18:35:17.150Z,15.77
2019-02-21T18:37:47.701Z,16.33
2019-02-21T18:40:27.107Z,27.13
2019-02-21T18:42:55.703Z,14.30
2019-02-21T18:45:24.425Z,19.20
2019-02-21T18:47:53.031Z,23.43
2019-02-21T18:50:21.487Z,29.83
2019-02-21T18:52:50.095Z,30.17
2019-02-21T18:55:18.699Z,27.17
2019-02-21T18:57:47.317Z,21.80
2019-02-21T19:00:22.588Z,28.93
2019-02-21T19:02:51.171Z,23.60
2019-02-21T19:05:20.558Z,30.93
2019-02-21T19:07:59.614Z,27.83
2019-02-21T19:10:20.583Z,23.20
2019-02-21T19:12:49.211Z,26.83
2019-02-21T19:15:19.387Z,19.93
2019-02-21T19:17:47.927Z,22.70
2019-02-21T19:20:21.055Z,27.87
2019-02-21T19:22:49.675Z,96.20
2019-02-21T19:25:18.207Z,114.40
2019-02-21T19:27:46.776Z,159.83
2019-02-21T19:30:21.613Z,143.87
2019-02-21T19:32:50.240Z,167.47
2019-02-21T19:35:18.895Z,46.90
2019-02-21T19:37:47.656Z,30.85
2019-02-21T19:40:16.332Z,27.65
2019-02-21T19:42:45.430Z,29.95
2019-02-21T19:45:14.032Z,35.00
2019-02-21T19:47:42.655Z,37.67
2019-02-21T19:50:11.842Z,29.42
2019-02-21T19:52:40.425Z,31.23
2019-02-21T19:55:10.595Z,25.77
2019-02-21T19:57:39.358Z,21.95
2019-02-21T20:00:14.266Z,25.40
2019-02-21T20:02:44.992Z,21.62
2019-02-21T20:05:14.843Z,36.55
2019-02-21T20:07:43.517Z,19.70
2019-02-21T20:10:12.122Z,20.08
2019-02-21T20:12:41.179Z,17.57
2019-02-21T20:15:11.433Z,19.75
2019-02-21T20:17:40.143Z,17.80
2019-02-21T20:20:20.198Z,20.55
2019-02-21T20:22:49.299Z,21.87
2019-02-21T20:25:17.813Z,18.67
2019-02-21T20:27:46.346Z,24.50
2019-02-21T20:30:19.938Z,29.75
2019-02-21T20:32:48.702Z,34.78
2019-02-21T20:35:17.315Z,33.53
2019-02-21T20:37:45.843Z,60.12
2019-02-21T20:40:14.495Z,89.60
2019-02-21T20:42:43.148Z,123.05
2019-02-21T20:45:15.401Z,116.15
2019-02-21T20:47:44.011Z,131.35
2019-02-21T20:50:13.070Z,105.40
2019-02-21T20:52:41.677Z,69.03
2019-02-21T20:55:12.244Z,39.88
2019-02-21T20:57:40.918Z,46.60
2019-02-21T21:00:14.718Z,32.03
2019-02-21T21:02:43.699Z,42.58
2019-02-21T21:05:12.572Z,28.67
2019-02-21T21:07:41.362Z,27.85
2019-02-21T21:10:14.802Z,28.80
2019-02-21T21:12:43.482Z,27.95
2019-02-21T21:15:13.957Z,34.88
2019-02-21T21:17:42.643Z,23.20
2019-02-21T21:20:17.359Z,27.55
2019-02-21T21:22:46.254Z,21.25
2019-02-21T21:25:16.332Z,33.02
2019-02-21T21:27:45.021Z,19.85
2019-02-21T21:30:15.390Z,23.30
2019-02-21T21:32:44.007Z,30.45
2019-02-21T21:35:12.684Z,27.37
2019-02-21T21:37:41.226Z,20.88
2019-02-21T21:40:12.585Z,20.40
2019-02-21T21:42:41.139Z,26.95
2019-02-21T21:45:12.778Z,26.10
2019-02-21T21:47:41.406Z,23.02
2019-02-21T21:50:12.587Z,19.85
2019-02-21T21:52:41.139Z,22.93
2019-02-21T21:55:09.659Z,20.90
2019-02-21T21:57:38.202Z,16.60
2019-02-21T22:00:18.231Z,15.15
2019-02-21T22:02:46.884Z,19.02
2019-02-21T22:05:15.557Z,25.75
2019-02-21T22:07:44.091Z,22.17
2019-02-21T22:10:13.889Z,21.05
2019-02-21T22:12:42.494Z,25.85
2019-02-21T22:15:19.257Z,24.98
2019-02-21T22:17:47.785Z,20.10
2019-02-21T22:20:16.423Z,24.30
2019-02-21T22:22:44.939Z,26.17
2019-02-21T22:25:14.306Z,15.98
2019-02-21T22:27:42.926Z,25.17
2019-02-21T22:30:21.084Z,16.73
2019-02-21T22:32:49.777Z,28.25
2019-02-21T22:35:18.304Z,20.55
2019-02-21T22:37:46.860Z,32.55
2019-02-21T22:40:16.818Z,23.07
2019-02-21T22:42:45.443Z,25.95
2019-02-21T22:45:14.207Z,28.50
2019-02-21T22:47:42.755Z,23.30
2019-02-21T22:50:16.026Z,20.50
2019-02-21T22:52:44.571Z,27.90
2019-02-21T22:55:13.166Z,15.03
2019-02-21T22:57:41.689Z,16.95
2019-02-21T23:00:32.392Z,16.73
2019-02-21T23:03:02.041Z,18.85
2019-02-21T23:05:54.412Z,18.17
2019-02-21T23:08:40.997Z,17.20
2019-02-21T23:11:09.666Z,21.40
2019-02-21T23:13:38.301Z,19.23
2019-02-21T23:16:06.802Z,20.90
2019-02-21T23:18:35.342Z,22.50
2019-02-21T23:21:04.133Z,22.17
2019-02-21T23:23:32.666Z,24.18
2019-02-21T23:26:01.287Z,101.97
2019-02-21T23:28:29.811Z,86.10
2019-02-21T23:30:58.296Z,141.20
2019-02-21T23:33:27.606Z,169.53
2019-02-21T23:35:56.153Z,118.17
2019-02-21T23:38:24.751Z,80.87
2019-02-21T23:40:53.323Z,77.20
2019-02-21T23:43:21.853Z,60.28
2019-02-21T23:45:50.400Z,71.95
2019-02-21T23:48:19.006Z,102.42
2019-02-21T23:50:47.539Z,147.17
2019-02-21T23:53:16.091Z,94.22
2019-02-21T23:55:44.619Z,61.98
2019-02-21T23:58:13.166Z,84.55
